createdAt,value
2022-09-26T00:01:14.103Z,97735.47
2022-09-26T00:04:23.388Z,97745.09
2022-09-26T00:07:29.275Z,97731.47
2022-09-26T00:10:36.581Z,97730.06
2022-09-26T00:13:43.781Z,97730.34
2022-09-26T00:16:51.087Z,97735.03
2022-09-26T00:19:56.037Z,97731.44
2022-09-26T00:23:03.035Z,97721.84
2022-09-26T00:26:10.628Z,97719.84
2022-09-26T00:29:16.541Z,97715.66
2022-09-26T00:32:21.417Z,97724.41
2022-09-26T00:35:26.371Z,97721.91
2022-09-26T00:38:31.384Z,97715.31
2022-09-26T00:41:38.436Z,97721.53
2022-09-26T00:44:55.058Z,97722.72
2022-09-26T00:48:02.907Z,97722.16
2022-09-26T00:51:08.372Z,97715.25
2022-09-26T00:54:15.812Z,97715.09
2022-09-26T00:57:28.674Z,97719.25
2022-09-26T01:00:34.268Z,97722.53
2022-09-26T01:03:41.766Z,97716.69
2022-09-26T01:06:47.693Z,97698.75
2022-09-26T01:09:52.426Z,97696.97
2022-09-26T01:12:57.929Z,97694.06
2022-09-26T01:16:00.562Z,97691.38
2022-09-26T01:19:07.383Z,97701.09
2022-09-26T01:22:43.758Z,97700.13
2022-09-26T01:26:13.677Z,97701.03
2022-09-26T01:29:47.422Z,97695.44
2022-09-26T01:33:28.771Z,97702.47
2022-09-26T01:37:01.733Z,97701.44
2022-09-26T01:40:11.854Z,97703.31
2022-09-26T01:43:23.297Z,97707.38
2022-09-26T01:46:35.299Z,97702.81
2022-09-26T01:49:47.358Z,97703.09
2022-09-26T01:52:56.672Z,97701.72
2022-09-26T01:56:05.650Z,97703.03
2022-09-26T01:59:13.047Z,97696.09
2022-09-26T02:02:25.462Z,97690.41
2022-09-26T02:05:33.566Z,97697.31
2022-09-26T02:08:41.678Z,97698.03
2022-09-26T02:11:48.338Z,97696.66
2022-09-26T02:14:53.331Z,97690.41
2022-09-26T02:18:01.544Z,97689.84
2022-09-26T02:21:07.791Z,97677.13
2022-09-26T02:24:12.258Z,97682.50
2022-09-26T02:27:15.011Z,97687.28
2022-09-26T02:30:17.949Z,97684.34
2022-09-26T02:33:21.081Z,97674.97
2022-09-26T02:36:24.758Z,97675.53
2022-09-26T02:39:28.855Z,97668.88
2022-09-26T02:42:36.517Z,97667.78
2022-09-26T02:45:45.471Z,97667.78
2022-09-26T02:49:01.855Z,97664.78
2022-09-26T02:52:19.858Z,97664.00
2022-09-26T02:55:32.001Z,97662.91
2022-09-26T02:58:47.481Z,97664.53
2022-09-26T03:01:56.505Z,97651.09
2022-09-26T03:05:03.675Z,97648.69
2022-09-26T03:08:11.469Z,97649.19
2022-09-26T03:11:21.523Z,97636.34
2022-09-26T03:14:24.128Z,97634.75
2022-09-26T03:17:29.005Z,97632.06
2022-09-26T03:20:31.818Z,97622.44
2022-09-26T03:23:35.225Z,97627.00
2022-09-26T03:26:41.321Z,97626.19
2022-09-26T03:29:44.249Z,97617.91
2022-09-26T03:32:46.893Z,97615.25
2022-09-26T03:35:49.509Z,97618.22
2022-09-26T03:38:52.305Z,97611.28
2022-09-26T03:41:57.534Z,97610.47
2022-09-26T03:45:00.534Z,97607.28
2022-09-26T03:48:03.576Z,97605.66
2022-09-26T03:51:07.910Z,97593.66
2022-09-26T03:54:12.327Z,97589.56
2022-09-26T03:57:17.875Z,97585.09
2022-09-26T04:00:20.483Z,97592.63
2022-09-26T04:03:23.083Z,97588.63
2022-09-26T04:06:25.929Z,97584.13
2022-09-26T04:09:28.837Z,97578.56
2022-09-26T04:12:33.359Z,97576.97
2022-09-26T04:15:36.680Z,97577.53
2022-09-26T04:18:39.392Z,97565.03
2022-09-26T04:21:42.965Z,97564.06
2022-09-26T04:24:45.620Z,97559.38
2022-09-26T04:27:49.591Z,97551.88
2022-09-26T04:30:52.207Z,97548.78
2022-09-26T04:33:55.813Z,97545.31
2022-09-26T04:36:59.284Z,97551.59
2022-09-26T04:40:02.355Z,97547.09
2022-09-26T04:43:06.355Z,97539.69
2022-09-26T04:46:11.617Z,97548.13
2022-09-26T04:49:14.378Z,97535.06
2022-09-26T04:52:17.063Z,97537.44
2022-09-26T04:55:19.728Z,97532.75
2022-09-26T04:58:23.801Z,97529.03
2022-09-26T05:01:27.494Z,97536.00
2022-09-26T05:04:33.579Z,97521.63
2022-09-26T05:07:40.763Z,97518.75
2022-09-26T05:10:43.776Z,97525.47
2022-09-26T05:13:53.547Z,97524.50
2022-09-26T05:16:56.739Z,97526.94
2022-09-26T05:20:00.426Z,97530.72
2022-09-26T05:23:04.618Z,97536.38
2022-09-26T05:26:20.938Z,97531.31
2022-09-26T05:29:24.893Z,97526.81
2022-09-26T05:32:29.019Z,97516.38
2022-09-26T05:35:34.743Z,97521.72
2022-09-26T05:38:37.682Z,97509.16
2022-09-26T05:41:39.350Z,97516.09
2022-09-26T05:44:43.373Z,97516.91
2022-09-26T05:47:48.652Z,97511.19
2022-09-26T05:50:51.352Z,97509.28
2022-09-26T05:53:53.987Z,97514.34
2022-09-26T05:56:56.629Z,97514.97
2022-09-26T06:00:02.374Z,97510.34
2022-09-26T06:03:05.219Z,97503.03
2022-09-26T06:06:10.436Z,97499.69
2022-09-26T06:09:13.106Z,97492.31
2022-09-26T06:12:19.600Z,97500.00
2022-09-26T06:15:24.864Z,97493.69
2022-09-26T06:18:27.862Z,97495.81
2022-09-26T06:21:30.634Z,97490.66
2022-09-26T06:24:33.258Z,97489.78
2022-09-26T06:27:38.526Z,97482.44
2022-09-26T06:30:42.953Z,97490.19
2022-09-26T06:33:50.102Z,97490.03
2022-09-26T06:36:52.879Z,97491.25
2022-09-26T06:39:59.195Z,97494.84
2022-09-26T06:43:02.395Z,97488.75
2022-09-26T06:46:08.723Z,97483.50
2022-09-26T06:49:11.362Z,97475.84
2022-09-26T06:52:14.053Z,97478.75
2022-09-26T06:55:17.147Z,97476.75
2022-09-26T06:58:20.209Z,97476.66
2022-09-26T07:01:24.289Z,97473.09
2022-09-26T07:04:27.470Z,97470.25
2022-09-26T07:07:30.783Z,97467.94
2022-09-26T07:10:36.022Z,97475.22
2022-09-26T07:13:39.095Z,97469.34
2022-09-26T07:16:43.192Z,97466.94
2022-09-26T07:19:46.823Z,97461.84
2022-09-26T07:22:49.647Z,97466.88
2022-09-26T07:25:53.065Z,97456.59
2022-09-26T07:28:56.677Z,97456.91
2022-09-26T07:32:01.191Z,97451.28
2022-09-26T07:35:04.216Z,97451.03
2022-09-26T07:38:06.938Z,97448.31
2022-09-26T07:41:10.850Z,97446.16
2022-09-26T07:47:54.999Z,97443.16
2022-09-26T07:50:59.407Z,97438.13
2022-09-26T07:54:02.248Z,97435.00
2022-09-26T07:57:05.604Z,97441.53
2022-09-26T08:00:12.803Z,97440.13
2022-09-26T08:03:17.063Z,97436.31
2022-09-26T08:06:20.854Z,97436.00
2022-09-26T08:09:23.492Z,97425.09
2022-09-26T08:12:26.984Z,97428.13
2022-09-26T08:15:29.611Z,97421.50
2022-09-26T08:18:34.511Z,97428.81
2022-09-26T08:21:37.114Z,97421.03
2022-09-26T08:24:40.014Z,97415.19
2022-09-26T08:27:43.440Z,97418.09
2022-09-26T08:30:46.593Z,97412.09
2022-09-26T08:33:50.634Z,97406.88
2022-09-26T08:36:54.703Z,97410.56
2022-09-26T08:39:57.464Z,97403.44
2022-09-26T08:43:07.421Z,97410.09
2022-09-26T08:46:44.581Z,97397.09
2022-09-26T08:50:09.961Z,97390.38
2022-09-26T08:53:17.766Z,97402.31
2022-09-26T08:56:23.766Z,97401.03
2022-09-26T08:59:29.758Z,97396.09
2022-09-26T09:02:38.961Z,97391.31
2022-09-26T09:05:46.691Z,97391.75
2022-09-26T09:08:51.790Z,97391.97
2022-09-26T09:12:11.283Z,97388.34
2022-09-26T09:15:28.869Z,97379.03
2022-09-26T09:18:42.706Z,97381.06
2022-09-26T09:22:01.650Z,97377.53
2022-09-26T09:25:10.849Z,97375.38
2022-09-26T09:28:32.203Z,97365.09
2022-09-26T09:31:38.872Z,97366.72
2022-09-26T09:34:50.132Z,97363.59
2022-09-26T09:37:57.824Z,97360.66
2022-09-26T09:41:05.357Z,97358.50
2022-09-26T09:44:20.875Z,97351.97
2022-09-26T09:47:23.662Z,97352.16
2022-09-26T09:50:40.643Z,97349.06
2022-09-26T09:54:09.193Z,97345.38
2022-09-26T09:57:31.357Z,97343.84
2022-09-26T10:00:41.373Z,97328.38
2022-09-26T10:03:55.944Z,97323.16
2022-09-26T10:06:59.749Z,97322.28
2022-09-26T10:10:04.776Z,97320.28
2022-09-26T10:13:09.096Z,97310.69
2022-09-26T10:16:15.294Z,97312.78
2022-09-26T10:19:18.157Z,97312.72
2022-09-26T10:22:29.182Z,97301.97
2022-09-26T10:25:33.209Z,97302.31
2022-09-26T10:28:45.061Z,97291.63
2022-09-26T10:31:55.297Z,97288.75
2022-09-26T10:35:19.788Z,97292.84
2022-09-26T10:38:27.191Z,97292.28
2022-09-26T10:41:30.218Z,97298.72
2022-09-26T10:44:34.679Z,97291.47
2022-09-26T10:47:38.929Z,97284.94
2022-09-26T10:50:51.383Z,97282.22
2022-09-26T10:53:58.675Z,97280.50
2022-09-26T10:57:04.987Z,97275.53
2022-09-26T11:00:09.000Z,97275.84
2022-09-26T11:03:14.073Z,97267.06
2022-09-26T11:06:25.495Z,97267.28
2022-09-26T11:09:28.833Z,97259.38
2022-09-26T11:12:39.508Z,97257.56
2022-09-26T11:15:43.061Z,97258.69
2022-09-26T11:18:52.731Z,97247.97
2022-09-26T11:22:07.282Z,97244.81
2022-09-26T11:25:17.074Z,97233.66
2022-09-26T11:28:25.020Z,97238.31
2022-09-26T11:31:30.223Z,97216.75
2022-09-26T11:34:36.143Z,97212.78
2022-09-26T11:38:05.582Z,97200.63
2022-09-26T11:41:36.660Z,97197.19
2022-09-26T11:44:54.542Z,97199.72
2022-09-26T11:48:18.541Z,97192.69
2022-09-26T11:51:40.711Z,97200.03
2022-09-26T11:55:08.365Z,97212.56
2022-09-26T11:58:21.862Z,97202.75
2022-09-26T12:01:38.114Z,97204.09
2022-09-26T12:04:57.417Z,97233.53
2022-09-26T12:08:14.750Z,97228.72
2022-09-26T12:11:26.857Z,97213.34
2022-09-26T12:14:42.593Z,97200.09
2022-09-26T12:17:59.440Z,97190.78
2022-09-26T12:21:17.642Z,97167.63
2022-09-26T12:24:27.170Z,97160.16
2022-09-26T12:27:36.994Z,97159.16
2022-09-26T12:30:48.162Z,97157.25
2022-09-26T12:34:12.273Z,97143.03
2022-09-26T12:37:32.634Z,97133.47
2022-09-26T12:40:40.454Z,97130.09
2022-09-26T12:44:08.626Z,97121.28
2022-09-26T12:47:43.356Z,97118.25
2022-09-26T12:50:56.217Z,97125.75
2022-09-26T12:54:20.175Z,97118.66
2022-09-26T12:57:30.949Z,97115.31
2022-09-26T13:00:40.901Z,97115.97
2022-09-26T13:04:15.006Z,97118.34
2022-09-26T13:07:34.531Z,97115.97
2022-09-26T13:10:48.805Z,97120.19
2022-09-26T13:14:38.272Z,97112.22
2022-09-26T13:17:46.025Z,97119.13
2022-09-26T13:20:53.762Z,97112.78
2022-09-26T13:24:02.025Z,97106.59
2022-09-26T13:27:13.421Z,97103.22
2022-09-26T13:30:19.602Z,97105.47
2022-09-26T13:33:28.389Z,97104.44
2022-09-26T13:36:32.365Z,97088.97
2022-09-26T13:39:47.986Z,97078.53
2022-09-26T13:43:02.947Z,97079.84
2022-09-26T13:46:16.092Z,97070.63
2022-09-26T13:49:37.503Z,97073.34
2022-09-26T13:52:52.253Z,97069.88
2022-09-26T13:56:49.442Z,97073.03
2022-09-26T13:59:54.331Z,97068.59
2022-09-26T14:03:39.941Z,97064.19
2022-09-26T14:07:03.894Z,97074.59
2022-09-26T14:10:18.475Z,97063.47
2022-09-26T14:13:35.868Z,97062.53
2022-09-26T14:16:39.420Z,97051.78
2022-09-26T14:19:46.620Z,97050.00
2022-09-26T14:22:54.009Z,97042.50
2022-09-26T14:26:05.362Z,97034.97
2022-09-26T14:29:31.298Z,97022.94
2022-09-26T14:32:38.631Z,97019.88
2022-09-26T14:35:43.158Z,97025.63
2022-09-26T14:38:47.817Z,97023.16
2022-09-26T14:41:50.998Z,97025.25
2022-09-26T14:44:59.613Z,97013.66
2022-09-26T14:48:09.798Z,97016.63
2022-09-26T14:51:25.718Z,97027.31
2022-09-26T14:54:35.445Z,97021.19
2022-09-26T14:57:38.824Z,97024.03
2022-09-26T15:00:47.517Z,97018.81
2022-09-26T15:03:54.887Z,97011.38
2022-09-26T15:07:02.582Z,97011.34
2022-09-26T15:10:10.358Z,97010.66
2022-09-26T15:13:28.088Z,97005.38
2022-09-26T15:16:37.374Z,97007.16
2022-09-26T15:19:49.094Z,97004.25
2022-09-26T15:22:57.137Z,97004.78
2022-09-26T15:26:02.870Z,96993.97
2022-09-26T15:29:07.996Z,96996.09
2022-09-26T15:32:16.834Z,96987.88
2022-09-26T15:35:20.480Z,96972.88
2022-09-26T15:38:24.921Z,96975.00
2022-09-26T15:41:45.303Z,96966.94
2022-09-26T15:44:50.965Z,96974.94
2022-09-26T15:47:56.351Z,96960.63
2022-09-26T15:51:05.619Z,96969.97
2022-09-26T15:54:20.326Z,96956.69
2022-09-26T15:57:25.337Z,96965.56
2022-09-26T16:00:33.401Z,96953.84
2022-09-26T16:03:45.726Z,96960.16
2022-09-26T16:06:57.982Z,96952.34
2022-09-26T16:10:01.180Z,96950.97
2022-09-26T16:13:03.937Z,96944.69
2022-09-26T16:16:09.619Z,96957.13
2022-09-26T16:19:30.183Z,96943.31
2022-09-26T16:22:40.417Z,96936.09
2022-09-26T16:25:56.409Z,96936.09
2022-09-26T16:29:00.255Z,96934.63
2022-09-26T16:32:04.194Z,96935.16
2022-09-26T16:35:19.592Z,96935.34
2022-09-26T16:38:28.439Z,96925.16
2022-09-26T16:45:14.805Z,96918.16
2022-09-26T16:48:41.006Z,96921.09
2022-09-26T16:52:13.033Z,96912.78
2022-09-26T16:55:16.258Z,96908.69
2022-09-26T16:58:19.166Z,96903.06
2022-09-26T17:01:39.768Z,96896.22
2022-09-26T17:04:44.182Z,96897.06
2022-09-26T17:07:50.256Z,96894.72
2022-09-26T17:10:56.526Z,96889.50
2022-09-26T17:13:59.771Z,96892.75
2022-09-26T17:17:03.942Z,96890.03
2022-09-26T17:20:12.710Z,96885.41
2022-09-26T17:23:38.729Z,96886.56
2022-09-26T17:26:43.422Z,96880.34
2022-09-26T17:29:48.587Z,96879.56
2022-09-26T17:32:54.207Z,96877.31
2022-09-26T17:35:57.084Z,96876.09
2022-09-26T17:39:02.593Z,96877.06
2022-09-26T17:42:05.741Z,96865.63
2022-09-26T17:45:10.079Z,96856.75
2022-09-26T17:48:16.454Z,96851.19
2022-09-26T17:51:21.569Z,96843.84
2022-09-26T17:54:31.108Z,96840.38
2022-09-26T17:57:38.278Z,96834.31
2022-09-26T18:00:44.350Z,96828.47
2022-09-26T18:03:47.138Z,96829.91
2022-09-26T18:06:49.998Z,96824.38
2022-09-26T18:09:54.857Z,96817.44
2022-09-26T18:13:00.234Z,96816.13
2022-09-26T18:16:03.623Z,96810.41
2022-09-26T18:19:07.702Z,96808.84
2022-09-26T18:22:16.562Z,96811.88
2022-09-26T18:25:23.880Z,96809.63
2022-09-26T18:28:27.194Z,96800.47
2022-09-26T18:31:32.097Z,96794.78
2022-09-26T18:34:34.979Z,96797.94
2022-09-26T18:37:38.183Z,96784.31
2022-09-26T18:40:46.141Z,96776.88
2022-09-26T18:43:52.019Z,96771.25
2022-09-26T18:47:00.965Z,96770.31
2022-09-26T18:50:05.250Z,96769.88
2022-09-26T18:53:14.634Z,96761.84
2022-09-26T18:56:36.274Z,96760.06
2022-09-26T18:59:39.006Z,96761.03
2022-09-26T19:02:43.142Z,96765.22
2022-09-26T19:05:46.408Z,96759.81
2022-09-26T19:08:54.007Z,96761.72
2022-09-26T19:12:00.896Z,96755.88
2022-09-26T19:15:15.384Z,96760.47
2022-09-26T19:18:21.418Z,96752.72
2022-09-26T19:21:33.388Z,96757.75
2022-09-26T19:24:41.788Z,96765.09
2022-09-26T19:27:53.710Z,96756.53
2022-09-26T19:31:01.447Z,96751.78
2022-09-26T19:34:07.528Z,96748.00
2022-09-26T19:37:14.338Z,96748.00
2022-09-26T19:40:21.226Z,96742.63
2022-09-26T19:43:28.310Z,96752.84
2022-09-26T19:46:34.734Z,96745.78
2022-09-26T19:49:39.989Z,96746.53
2022-09-26T19:52:45.996Z,96740.91
2022-09-26T19:55:51.319Z,96743.41
2022-09-26T19:58:59.493Z,96736.75
2022-09-26T20:02:04.846Z,96730.38
2022-09-26T20:05:17.867Z,96730.72
2022-09-26T20:08:24.180Z,96723.28
2022-09-26T20:11:28.928Z,96712.63
2022-09-26T20:14:35.442Z,96715.13
2022-09-26T20:17:40.544Z,96710.38
2022-09-26T20:20:49.018Z,96714.41
2022-09-26T20:23:54.109Z,96703.75
2022-09-26T20:27:00.623Z,96694.75
2022-09-26T20:30:29.039Z,96700.91
2022-09-26T20:33:36.028Z,96693.63
2022-09-26T20:36:46.538Z,96691.91
2022-09-26T20:39:53.025Z,96691.91
2022-09-26T20:43:02.510Z,96692.16
2022-09-26T20:46:12.336Z,96693.09
2022-09-26T20:49:20.589Z,96691.53
2022-09-26T20:52:28.839Z,96691.38
2022-09-26T20:55:34.087Z,96665.94
2022-09-26T20:58:39.573Z,96673.63
2022-09-26T21:01:46.382Z,96667.28
2022-09-26T21:04:52.802Z,96662.97
2022-09-26T21:08:00.303Z,96666.09
2022-09-26T21:11:07.573Z,96660.97
2022-09-26T21:14:12.304Z,96654.19
2022-09-26T21:17:21.546Z,96658.88
2022-09-26T21:20:28.687Z,96644.03
2022-09-26T21:23:35.959Z,96652.31
2022-09-26T21:26:41.024Z,96638.84
2022-09-26T21:29:45.791Z,96632.00
2022-09-26T21:32:54.924Z,96629.84
2022-09-26T21:36:00.698Z,96630.84
2022-09-26T21:39:06.951Z,96626.97
2022-09-26T21:42:13.237Z,96625.50
2022-09-26T21:45:17.945Z,96623.03
2022-09-26T21:48:24.627Z,96624.97
2022-09-26T21:51:31.209Z,96624.38
2022-09-26T21:54:42.805Z,96636.22
2022-09-26T21:57:50.894Z,96617.84
2022-09-26T22:00:56.105Z,96618.38
2022-09-26T22:04:02.923Z,96615.84
2022-09-26T22:07:08.038Z,96605.09
2022-09-26T22:10:16.308Z,96611.34
2022-09-26T22:13:21.408Z,96594.91
2022-09-26T22:16:27.170Z,96599.38
2022-09-26T22:19:40.774Z,96598.13
2022-09-26T22:22:45.968Z,96595.75
2022-09-26T22:25:51.827Z,96597.84
2022-09-26T22:28:57.203Z,96593.59
2022-09-26T22:32:03.289Z,96577.47
2022-09-26T22:35:10.545Z,96578.84
2022-09-26T22:38:15.752Z,96574.69
2022-09-26T22:41:21.051Z,96565.34
2022-09-26T22:44:26.404Z,96567.72
2022-09-26T22:47:31.275Z,96567.25
2022-09-26T22:50:37.414Z,96576.25
2022-09-26T22:53:43.603Z,96560.41
2022-09-26T22:56:48.809Z,96557.44
2022-09-26T22:59:53.786Z,96551.94
2022-09-26T23:02:58.790Z,96541.56
2022-09-26T23:06:06.193Z,96531.28
2022-09-26T23:09:11.159Z,96526.53
2022-09-26T23:12:16.667Z,96518.94
2022-09-26T23:15:21.887Z,96508.72
2022-09-26T23:18:28.870Z,96506.50
2022-09-26T23:21:35.454Z,96499.38
2022-09-26T23:24:40.468Z,96484.53
2022-09-26T23:27:45.372Z,96482.16
2022-09-26T23:30:50.511Z,96486.88
2022-09-26T23:33:56.129Z,96479.16
2022-09-26T23:37:02.692Z,96470.28
2022-09-26T23:40:08.314Z,96464.31
2022-09-26T23:43:13.766Z,96460.03
2022-09-26T23:46:19.060Z,96467.34
2022-09-26T23:49:23.976Z,96454.66
2022-09-26T23:52:30.551Z,96457.19
2022-09-26T23:55:35.524Z,96454.84
2022-09-26T23:58:40.787Z,96439.34
